createdAt,value
2018-09-01T00:00:03.852Z,15.60
2018-09-01T00:02:36.446Z,15.50
2018-09-01T00:05:08.926Z,15.50
2018-09-01T00:07:41.889Z,15.50
2018-09-01T00:10:14.493Z,15.50
2018-09-01T00:12:47.319Z,15.50
2018-09-01T00:15:19.883Z,15.50
2018-09-01T00:17:52.536Z,15.50
2018-09-01T00:20:25.519Z,15.50
2018-09-01T00:22:58.198Z,15.50
2018-09-01T00:25:31.178Z,15.30
2018-09-01T00:28:03.813Z,15.30
2018-09-01T00:30:36.966Z,15.20
2018-09-01T00:33:09.396Z,15.30
2018-09-01T00:35:42.022Z,15.30
2018-09-01T00:38:20.488Z,15.20
2018-09-01T00:40:53.026Z,15.20
2018-09-01T00:43:25.671Z,15.10
2018-09-01T00:45:58.118Z,15.10
2018-09-01T00:48:33.354Z,15.10
2018-09-01T00:51:05.978Z,15.10
2018-09-01T00:53:38.472Z,15.00
2018-09-01T00:56:10.963Z,15.00
2018-09-01T00:58:43.585Z,15.00
2018-09-01T01:01:16.144Z,15.10
2018-09-01T01:03:48.726Z,15.00
2018-09-01T01:06:21.464Z,15.10
2018-09-01T01:08:53.983Z,15.00
2018-09-01T01:11:26.439Z,15.00
2018-09-01T01:13:58.818Z,15.10
2018-09-01T01:16:31.280Z,15.10
2018-09-01T01:19:03.809Z,15.00
2018-09-01T01:21:36.633Z,14.90
2018-09-01T01:24:09.131Z,14.90
2018-09-01T01:26:41.537Z,14.70
2018-09-01T01:29:14.774Z,14.80
2018-09-01T01:31:47.259Z,14.80
2018-09-01T01:34:19.798Z,14.80
2018-09-01T01:36:52.550Z,14.70
2018-09-01T01:39:25.053Z,14.60
2018-09-01T01:41:57.550Z,14.60
2018-09-01T01:44:30.032Z,14.60
2018-09-01T01:47:02.599Z,14.60
2018-09-01T01:49:35.373Z,14.40
2018-09-01T01:52:08.150Z,14.40
2018-09-01T01:54:41.108Z,14.30
2018-09-01T01:57:13.777Z,14.30
2018-09-01T01:59:46.230Z,14.40
2018-09-01T02:02:18.886Z,14.40
2018-09-01T02:04:51.806Z,14.30
2018-09-01T02:07:24.475Z,14.10
2018-09-01T02:09:57.136Z,14.00
2018-09-01T02:12:30.211Z,14.00
2018-09-01T02:15:02.684Z,14.10
2018-09-01T02:17:35.539Z,14.00
2018-09-01T02:20:08.003Z,14.10
2018-09-01T02:22:40.701Z,14.10
2018-09-01T02:25:13.214Z,14.00
2018-09-01T02:27:45.944Z,14.00
2018-09-01T02:30:19.074Z,13.80
2018-09-01T02:32:51.939Z,13.80
2018-09-01T02:35:24.555Z,13.80
2018-09-01T02:37:57.005Z,13.80
2018-09-01T02:40:29.470Z,13.70
2018-09-01T02:43:01.982Z,13.70
2018-09-01T02:45:34.446Z,13.80
2018-09-01T02:48:06.920Z,13.70
2018-09-01T02:50:39.692Z,13.70
2018-09-01T02:53:12.582Z,13.70
2018-09-01T02:55:44.991Z,13.70
2018-09-01T02:58:17.419Z,13.80
2018-09-01T03:03:27.894Z,13.50
2018-09-01T03:06:00.349Z,13.40
2018-09-01T03:08:32.879Z,13.50
2018-09-01T03:11:05.424Z,13.50
2018-09-01T03:13:38.223Z,13.50
2018-09-01T03:16:10.720Z,13.50
2018-09-01T03:18:43.197Z,13.40
2018-09-01T03:21:15.655Z,13.40
2018-09-01T03:23:48.053Z,13.40
2018-09-01T03:26:20.490Z,13.40
2018-09-01T03:28:52.998Z,13.40
2018-09-01T03:31:25.521Z,13.30
2018-09-01T03:33:57.953Z,13.40
2018-09-01T03:36:30.360Z,13.40
2018-09-01T03:39:04.580Z,13.20
2018-09-01T03:41:37.449Z,13.30
2018-09-01T03:44:09.906Z,13.30
2018-09-01T03:46:42.338Z,13.30
2018-09-01T03:49:14.823Z,13.20
2018-09-01T03:51:47.331Z,13.10
2018-09-01T03:54:19.784Z,13.20
2018-09-01T03:56:52.249Z,13.10
2018-09-01T03:59:24.779Z,13.00
2018-09-01T04:01:57.244Z,13.00
2018-09-01T04:04:29.677Z,12.90
2018-09-01T04:07:02.081Z,13.00
2018-09-01T04:09:34.525Z,13.10
2018-09-01T04:12:07.022Z,12.90
2018-09-01T04:14:39.433Z,12.90
2018-09-01T04:17:11.883Z,12.90
2018-09-01T04:19:44.752Z,12.80
2018-09-01T04:22:17.305Z,12.90
2018-09-01T04:24:49.810Z,13.00
2018-09-01T04:27:22.269Z,13.10
2018-09-01T04:29:54.739Z,13.10
2018-09-01T04:32:27.576Z,13.00
2018-09-01T04:35:02.471Z,12.90
2018-09-01T04:37:35.386Z,12.90
2018-09-01T04:40:08.315Z,12.90
2018-09-01T04:42:41.220Z,13.00
2018-09-01T04:45:13.947Z,12.90
2018-09-01T04:47:46.715Z,12.90
2018-09-01T04:50:19.467Z,12.90
2018-09-01T04:52:53.012Z,13.10
2018-09-01T04:55:26.058Z,13.00
2018-09-01T04:57:59.176Z,13.10
2018-09-01T05:00:32.019Z,13.00
2018-09-01T05:03:04.909Z,13.10
2018-09-01T05:05:37.547Z,13.10
2018-09-01T05:08:10.527Z,13.10
2018-09-01T05:10:42.973Z,12.90
2018-09-01T05:13:15.477Z,12.70
2018-09-01T05:15:47.945Z,12.60
2018-09-01T05:18:20.412Z,12.50
2018-09-01T05:20:52.807Z,12.50
2018-09-01T05:23:25.399Z,12.70
2018-09-01T05:25:57.818Z,12.70
2018-09-01T05:28:30.298Z,12.70
2018-09-01T05:31:02.854Z,12.70
2018-09-01T05:33:37.202Z,12.80
2018-09-01T05:36:09.716Z,12.70
2018-09-01T05:38:42.183Z,12.90
2018-09-01T05:41:14.599Z,12.90
2018-09-01T05:43:47.216Z,13.00
2018-09-01T05:46:19.591Z,13.20
2018-09-01T05:48:51.972Z,13.50
2018-09-01T05:51:24.475Z,13.60
2018-09-01T05:53:57.441Z,13.80
2018-09-01T05:56:30.036Z,13.90
2018-09-01T05:59:02.560Z,13.90
2018-09-01T06:01:35.048Z,13.90
2018-09-01T06:04:07.537Z,13.90
2018-09-01T06:06:40.009Z,13.90
2018-09-01T06:09:12.827Z,14.00
2018-09-01T06:11:45.786Z,14.10
2018-09-01T06:14:18.579Z,14.30
2018-09-01T06:16:51.050Z,14.30
2018-09-01T06:19:23.841Z,14.20
2018-09-01T06:21:56.229Z,14.20
2018-09-01T06:24:28.687Z,14.30
2018-09-01T06:27:06.058Z,14.40
2018-09-01T06:29:39.404Z,14.30
2018-09-01T06:32:11.863Z,14.20
2018-09-01T06:34:44.439Z,14.10
2018-09-01T06:37:17.483Z,14.10
2018-09-01T06:39:50.362Z,14.10
2018-09-01T06:42:23.659Z,14.10
2018-09-01T06:44:56.144Z,14.10
2018-09-01T06:47:28.653Z,14.10
2018-09-01T06:50:01.166Z,14.20
2018-09-01T06:52:33.715Z,14.10
2018-09-01T06:55:06.644Z,14.20
2018-09-01T06:57:39.121Z,14.20
2018-09-01T07:00:11.607Z,14.20
2018-09-01T07:02:44.163Z,14.30
2018-09-01T07:05:18.339Z,14.40
2018-09-01T07:07:50.897Z,14.50
2018-09-01T07:12:55.868Z,14.60
2018-09-01T07:20:33.127Z,15.00
2018-09-01T07:23:05.500Z,15.00
2018-09-01T07:25:38.054Z,15.10
2018-09-01T07:28:10.455Z,15.30
2018-09-01T07:30:43.157Z,15.30
2018-09-01T07:33:16.284Z,15.40
2018-09-01T07:35:49.898Z,15.40
2018-09-01T07:38:22.259Z,15.50
2018-09-01T07:40:54.706Z,15.80
2018-09-01T07:43:27.250Z,15.80
2018-09-01T07:46:02.011Z,15.90
2018-09-01T07:48:36.203Z,15.90
2018-09-01T07:51:08.666Z,16.00
2018-09-01T07:53:44.365Z,16.20
2018-09-01T07:58:51.752Z,16.50
2018-09-01T08:03:56.625Z,16.60
2018-09-01T08:06:29.094Z,16.40
2018-09-01T08:09:02.355Z,16.40
2018-09-01T08:11:34.740Z,16.50
2018-09-01T08:16:42.416Z,16.70
2018-09-01T08:19:15.251Z,16.70
2018-09-01T08:21:48.199Z,16.80
2018-09-01T08:24:20.677Z,16.90
2018-09-01T08:26:55.446Z,17.00
2018-09-01T08:29:29.940Z,17.20
2018-09-01T08:32:02.509Z,17.30
2018-09-01T08:34:39.989Z,17.30
2018-09-01T08:37:12.950Z,17.30
2018-09-01T08:39:45.572Z,17.40
2018-09-01T08:47:22.895Z,17.70
2018-09-01T08:49:55.333Z,17.70
2018-09-01T08:52:28.618Z,17.70
2018-09-01T08:55:01.099Z,17.70
2018-09-01T08:57:33.562Z,17.80
2018-09-01T09:00:07.003Z,17.80
2018-09-01T09:02:39.439Z,17.90
2018-09-01T09:05:12.147Z,18.00
2018-09-01T09:07:44.588Z,18.00
2018-09-01T09:10:17.394Z,18.10
2018-09-01T09:12:49.839Z,18.10
2018-09-01T09:15:23.774Z,18.20
2018-09-01T09:20:35.920Z,18.40
2018-09-01T09:23:09.965Z,18.30
2018-09-01T09:25:44.065Z,18.30
2018-09-01T09:28:19.337Z,18.40
2018-09-01T09:30:53.421Z,18.60
2018-09-01T09:33:27.415Z,18.70
2018-09-01T09:36:02.603Z,18.60
2018-09-01T09:38:38.404Z,18.60
2018-09-01T09:41:14.378Z,18.70
2018-09-01T09:43:47.191Z,19.00
2018-09-01T09:46:19.863Z,19.30
2018-09-01T09:48:52.278Z,19.40
2018-09-01T09:51:24.806Z,19.50
2018-09-01T09:53:57.188Z,19.50
2018-09-01T09:56:29.601Z,19.50
2018-09-01T09:59:03.051Z,19.50
2018-09-01T10:01:38.950Z,19.30
2018-09-01T10:04:11.982Z,19.30
2018-09-01T10:06:44.423Z,19.30
2018-09-01T10:09:16.793Z,19.50
2018-09-01T10:11:49.235Z,19.70
2018-09-01T10:14:21.664Z,20.00
2018-09-01T10:16:54.074Z,20.30
2018-09-01T10:19:27.214Z,20.70
2018-09-01T10:21:59.944Z,20.60
2018-09-01T10:24:32.814Z,20.20
2018-09-01T10:27:05.327Z,19.80
2018-09-01T10:29:37.989Z,19.70
2018-09-01T10:32:11.234Z,19.60
2018-09-01T10:34:43.785Z,19.50
2018-09-01T10:37:16.493Z,19.60
2018-09-01T10:39:49.026Z,19.80
2018-09-01T10:42:21.911Z,20.10
2018-09-01T10:44:54.373Z,20.40
2018-09-01T10:47:27.232Z,20.60
2018-09-01T10:49:59.853Z,20.60
2018-09-01T10:52:32.678Z,20.70
2018-09-01T10:55:05.994Z,20.50
2018-09-01T10:57:38.579Z,20.50
2018-09-01T11:00:11.336Z,20.30
2018-09-01T11:02:44.243Z,20.40
2018-09-01T11:05:16.926Z,20.30
2018-09-01T11:07:49.754Z,20.30
2018-09-01T11:10:22.216Z,20.20
2018-09-01T11:12:55.109Z,20.30
2018-09-01T11:15:27.806Z,20.40
2018-09-01T11:18:00.546Z,20.40
2018-09-01T11:20:33.092Z,20.60
2018-09-01T11:23:05.654Z,20.70
2018-09-01T11:25:38.429Z,20.70
2018-09-01T11:28:10.947Z,20.70
2018-09-01T11:30:43.850Z,20.60
2018-09-01T11:33:16.756Z,20.50
2018-09-01T11:35:49.380Z,20.40
2018-09-01T11:38:21.893Z,20.40
2018-09-01T11:40:54.532Z,20.30
2018-09-01T11:43:27.094Z,20.40
2018-09-01T11:45:59.808Z,20.50
2018-09-01T11:48:32.636Z,20.80
2018-09-01T11:51:05.359Z,20.80
2018-09-01T11:53:37.920Z,20.90
2018-09-01T11:56:10.377Z,20.80
2018-09-01T11:58:42.995Z,20.90
2018-09-01T12:01:15.528Z,21.00
2018-09-01T12:03:47.977Z,21.00
2018-09-01T12:06:20.495Z,20.80
2018-09-01T12:08:52.987Z,20.90
2018-09-01T12:11:25.374Z,20.80
2018-09-01T12:13:57.893Z,21.00
2018-09-01T12:16:30.331Z,21.00
2018-09-01T12:19:02.815Z,21.20
2018-09-01T12:21:35.287Z,21.30
2018-09-01T12:24:08.120Z,21.30
2018-09-01T12:26:41.230Z,21.40
2018-09-01T12:29:14.331Z,21.40
2018-09-01T12:31:47.219Z,21.50
2018-09-01T12:34:20.860Z,21.50
2018-09-01T12:36:53.802Z,21.60
2018-09-01T12:39:27.344Z,21.70
2018-09-01T12:42:00.047Z,21.70
2018-09-01T12:44:32.777Z,21.80
2018-09-01T12:47:05.428Z,21.80
2018-09-01T12:49:38.029Z,21.70
2018-09-01T12:52:10.522Z,21.80
2018-09-01T12:54:43.157Z,21.90
2018-09-01T12:57:15.594Z,21.80
2018-09-01T12:59:48.084Z,21.70
2018-09-01T13:02:25.408Z,21.70
2018-09-01T13:04:58.187Z,21.50
2018-09-01T13:07:30.585Z,21.40
2018-09-01T13:10:03.284Z,21.50
2018-09-01T13:12:35.715Z,21.70
2018-09-01T13:15:08.168Z,21.70
2018-09-01T13:17:40.781Z,21.40
2018-09-01T13:20:13.347Z,21.30
2018-09-01T13:22:46.504Z,21.50
2018-09-01T13:25:19.353Z,21.70
2018-09-01T13:27:52.060Z,21.80
2018-09-01T13:30:24.535Z,21.70
2018-09-01T13:32:57.097Z,21.90
2018-09-01T13:35:29.911Z,22.00
2018-09-01T13:38:02.614Z,21.90
2018-09-01T13:40:35.355Z,21.80
2018-09-01T13:43:08.248Z,21.70
2018-09-01T13:45:41.184Z,21.70
2018-09-01T13:48:13.899Z,21.70
2018-09-01T13:50:46.502Z,21.70
2018-09-01T13:53:37.449Z,21.70
2018-09-01T13:56:10.663Z,21.70
2018-09-01T13:58:43.575Z,21.80
2018-09-01T14:01:16.241Z,21.90
2018-09-01T14:03:49.095Z,21.90
2018-09-01T14:06:21.925Z,21.90
2018-09-01T14:08:55.926Z,22.10
2018-09-01T14:11:28.623Z,22.00
2018-09-01T14:14:01.538Z,22.00
2018-09-01T14:16:34.203Z,22.10
2018-09-01T14:19:07.060Z,22.40
2018-09-01T14:21:39.850Z,22.80
2018-09-01T14:24:12.817Z,22.70
2018-09-01T14:26:45.620Z,22.60
2018-09-01T14:29:18.649Z,22.60
2018-09-01T14:31:51.680Z,22.40
2018-09-01T14:34:25.372Z,22.40
2018-09-01T14:36:58.522Z,22.50
2018-09-01T14:39:31.082Z,22.50
2018-09-01T14:42:03.841Z,22.70
2018-09-01T14:44:36.277Z,22.70
2018-09-01T14:47:08.985Z,22.70
2018-09-01T14:49:41.433Z,22.70
2018-09-01T14:52:14.465Z,22.60
2018-09-01T14:54:47.214Z,22.60
2018-09-01T14:57:19.683Z,22.70
2018-09-01T14:59:52.475Z,22.60
2018-09-01T15:02:24.995Z,22.80
2018-09-01T15:04:57.906Z,22.90
2018-09-01T15:07:30.880Z,22.70
2018-09-01T15:10:04.033Z,22.40
2018-09-01T15:12:36.867Z,22.30
2018-09-01T15:15:09.404Z,22.30
2018-09-01T15:17:42.345Z,22.10
2018-09-01T15:20:15.589Z,22.10
2018-09-01T15:22:48.091Z,22.20
2018-09-01T15:25:21.828Z,22.40
2018-09-01T15:27:54.815Z,22.30
2018-09-01T15:30:27.280Z,22.10
2018-09-01T15:33:00.059Z,22.20
2018-09-01T15:35:32.982Z,22.00
2018-09-01T15:38:05.694Z,22.10
2018-09-01T15:40:38.167Z,22.20
2018-09-01T15:43:11.770Z,22.20
2018-09-01T15:45:44.614Z,22.20
2018-09-01T15:48:18.770Z,22.20
2018-09-01T15:50:51.907Z,22.20
2018-09-01T15:53:25.019Z,22.10
2018-09-01T15:55:57.680Z,22.10
2018-09-01T15:58:30.665Z,22.30
2018-09-01T16:01:03.202Z,22.20
2018-09-01T16:03:35.917Z,22.10
2018-09-01T16:06:08.550Z,22.10
2018-09-01T16:08:41.043Z,22.10
2018-09-01T16:11:13.426Z,22.10
2018-09-01T16:13:45.820Z,22.20
2018-09-01T16:16:18.330Z,22.30
2018-09-01T16:18:50.874Z,22.20
2018-09-01T16:21:24.759Z,22.10
2018-09-01T16:23:58.620Z,22.10
2018-09-01T16:26:32.751Z,22.10
2018-09-01T16:29:06.642Z,22.10
2018-09-01T16:31:41.751Z,22.00
2018-09-01T16:34:14.768Z,21.90
2018-09-01T16:36:52.615Z,21.90
2018-09-01T16:39:28.977Z,22.00
2018-09-01T16:42:04.226Z,21.90
2018-09-01T16:44:40.523Z,21.90
2018-09-01T16:47:33.130Z,21.90
2018-09-01T16:50:07.938Z,21.90
2018-09-01T16:52:43.511Z,21.90
2018-09-01T16:55:17.682Z,21.80
2018-09-01T16:57:50.865Z,21.80
2018-09-01T17:00:23.662Z,21.70
2018-09-01T17:02:57.282Z,21.70
2018-09-01T17:05:31.275Z,21.70
2018-09-01T17:08:04.826Z,21.60
2018-09-01T17:10:37.698Z,21.60
2018-09-01T17:13:10.947Z,21.60
2018-09-01T17:15:44.288Z,21.50
2018-09-01T17:18:17.059Z,21.50
2018-09-01T17:20:49.908Z,21.50
2018-09-01T17:23:23.013Z,21.40
2018-09-01T17:25:55.719Z,21.40
2018-09-01T17:28:29.496Z,21.30
2018-09-01T17:31:02.715Z,21.30
2018-09-01T17:33:36.623Z,21.30
2018-09-01T17:36:10.293Z,21.20
2018-09-01T17:38:43.878Z,21.10
2018-09-01T17:41:16.951Z,21.10
2018-09-01T17:43:50.111Z,21.00
2018-09-01T17:46:22.912Z,21.00
2018-09-01T17:48:55.929Z,21.00
2018-09-01T17:51:29.457Z,21.00
2018-09-01T17:54:02.382Z,21.00
2018-09-01T17:56:35.012Z,20.90
2018-09-01T17:59:07.693Z,20.80
2018-09-01T18:01:40.228Z,20.80
2018-09-01T18:04:14.365Z,20.70
2018-09-01T18:06:47.155Z,20.70
2018-09-01T18:09:21.635Z,20.60
2018-09-01T18:11:55.154Z,20.60
2018-09-01T18:14:27.842Z,20.50
2018-09-01T18:17:01.066Z,20.40
2018-09-01T18:19:34.757Z,20.40
2018-09-01T18:22:08.927Z,20.40
2018-09-01T18:24:41.542Z,20.40
2018-09-01T18:27:14.173Z,20.40
2018-09-01T18:29:47.059Z,20.30
2018-09-01T18:32:20.165Z,20.30
2018-09-01T18:34:53.091Z,20.20
2018-09-01T18:37:25.801Z,20.10
2018-09-01T18:39:58.780Z,20.10
2018-09-01T18:42:31.551Z,20.00
2018-09-01T18:45:04.668Z,20.00
2018-09-01T18:47:37.783Z,20.00
2018-09-01T18:50:10.913Z,19.90
2018-09-01T18:52:43.607Z,19.90
2018-09-01T18:55:18.302Z,19.80
2018-09-01T18:57:51.572Z,19.80
2018-09-01T19:00:26.900Z,19.80
2018-09-01T19:03:01.389Z,19.90
2018-09-01T19:05:34.424Z,19.90
2018-09-01T19:08:07.021Z,20.00
2018-09-01T19:10:40.388Z,20.00
2018-09-01T19:13:14.829Z,20.00
2018-09-01T19:15:47.448Z,20.00
2018-09-01T19:18:21.991Z,19.90
2018-09-01T19:20:55.521Z,19.90
2018-09-01T19:23:28.842Z,20.00
2018-09-01T19:26:05.935Z,19.90
2018-09-01T19:28:39.535Z,19.90
2018-09-01T19:31:12.803Z,19.90
2018-09-01T19:33:45.461Z,19.90
2018-09-01T19:36:20.848Z,19.80
2018-09-01T19:38:54.397Z,19.80
2018-09-01T19:41:27.467Z,19.70
2018-09-01T19:44:08.081Z,19.70
2018-09-01T19:46:41.875Z,19.70
2018-09-01T19:49:16.301Z,19.70
2018-09-01T19:51:50.885Z,19.70
2018-09-01T19:54:24.410Z,19.60
2018-09-01T19:56:57.551Z,19.70
2018-09-01T19:59:30.946Z,19.60
2018-09-01T20:02:05.211Z,19.60
2018-09-01T20:04:38.801Z,18.50
2018-09-01T20:07:12.924Z,19.60
2018-09-01T20:09:49.325Z,19.60
2018-09-01T20:12:22.828Z,19.60
2018-09-01T20:14:57.021Z,19.50
2018-09-01T20:17:36.441Z,19.50
2018-09-01T20:20:10.003Z,19.40
2018-09-01T20:22:43.791Z,19.50
2018-09-01T20:25:17.324Z,19.50
2018-09-01T20:27:51.451Z,19.40
2018-09-01T20:33:01.850Z,19.30
2018-09-01T20:35:40.862Z,19.20
2018-09-01T20:38:14.822Z,19.20
2018-09-01T20:40:48.726Z,19.20
2018-09-01T20:43:22.164Z,19.20
2018-09-01T20:45:55.612Z,19.20
2018-09-01T20:48:29.611Z,19.20
2018-09-01T20:51:03.715Z,19.10
2018-09-01T20:53:36.603Z,19.20
2018-09-01T20:56:09.060Z,19.20
2018-09-01T20:58:43.582Z,19.20
2018-09-01T21:01:17.013Z,19.20
2018-09-01T21:03:50.347Z,19.20
2018-09-01T21:06:30.909Z,19.20
2018-09-01T21:09:05.107Z,19.20
2018-09-01T21:11:40.384Z,19.10
2018-09-01T21:14:13.014Z,19.10
2018-09-01T21:16:46.594Z,19.20
2018-09-01T21:19:19.409Z,19.20
2018-09-01T21:21:52.191Z,19.10
2018-09-01T21:24:24.906Z,19.10
2018-09-01T21:26:57.976Z,19.00
2018-09-01T21:29:31.160Z,19.00
2018-09-01T21:32:04.015Z,19.00
2018-09-01T21:34:38.406Z,19.00
2018-09-01T21:37:11.399Z,18.90
2018-09-01T21:39:45.041Z,18.80
2018-09-01T21:42:18.203Z,18.70
2018-09-01T21:44:51.077Z,18.70
2018-09-01T21:47:24.167Z,18.70
2018-09-01T21:49:57.606Z,18.70
2018-09-01T21:52:30.628Z,18.70
2018-09-01T21:55:05.392Z,18.70
2018-09-01T21:57:38.297Z,18.70
2018-09-01T22:00:11.386Z,18.70
2018-09-01T22:02:44.454Z,18.70
2018-09-01T22:05:18.607Z,18.60
2018-09-01T22:07:51.410Z,18.50
2018-09-01T22:10:24.943Z,18.50
2018-09-01T22:12:59.990Z,18.50
2018-09-01T22:15:33.145Z,18.50
2018-09-01T22:18:05.741Z,18.50
2018-09-01T22:20:39.477Z,18.50
2018-09-01T22:23:13.465Z,18.40
2018-09-01T22:25:46.770Z,18.40
2018-09-01T22:28:19.506Z,18.40
2018-09-01T22:30:54.051Z,18.30
2018-09-01T22:33:30.073Z,18.20
2018-09-01T22:36:02.678Z,18.20
2018-09-01T22:38:35.560Z,18.10
2018-09-01T22:41:09.057Z,18.10
2018-09-01T22:43:41.900Z,18.10
2018-09-01T22:46:14.593Z,18.10
2018-09-01T22:48:47.648Z,18.00
2018-09-01T22:51:20.480Z,18.00
2018-09-01T22:53:53.151Z,18.00
2018-09-01T22:56:25.888Z,18.00
2018-09-01T22:58:58.374Z,17.90
2018-09-01T23:01:30.992Z,17.90
2018-09-01T23:04:03.582Z,17.80
2018-09-01T23:06:37.506Z,17.80
2018-09-01T23:09:11.210Z,17.60
2018-09-01T23:11:46.359Z,17.60
2018-09-01T23:14:19.285Z,17.60
2018-09-01T23:16:53.294Z,17.50
2018-09-01T23:19:27.378Z,17.50
2018-09-01T23:22:00.499Z,17.40
2018-09-01T23:24:33.113Z,17.40
2018-09-01T23:27:05.889Z,17.40
2018-09-01T23:29:40.007Z,17.40
2018-09-01T23:32:13.400Z,17.40
2018-09-01T23:34:48.608Z,17.40
2018-09-01T23:37:24.899Z,17.30
2018-09-01T23:40:00.670Z,17.30
2018-09-01T23:42:33.691Z,17.20
2018-09-01T23:45:09.306Z,17.20
2018-09-01T23:47:41.970Z,17.10
2018-09-01T23:50:14.741Z,17.10
2018-09-01T23:52:50.440Z,17.00
2018-09-01T23:55:24.041Z,17.00
2018-09-01T23:58:01.618Z,17.00
